Happy Jack, AZ

1:24 PM MST on December 28, 2014 (GMT -0700)
RAWS HAPPY JACK AZ US | Change Station
CLOSE
Current Station
Personal Weather Station
Location: Happy Jack, AZ
Elevation: 6792 ft
Nearby Weather Stations

Elev 6792 ft 34.62 °N, 111.34 °W | Updated 22 minutes ago

Partly Cloudy
Partly Cloudy
37 °F
Feels Like 30 °F
N
9
Wind Variable Wind from WSW
Gusts 16.0 mph

Today
High -- | Low -- °F
--% Chance of Precip.
Yesterday
High -- | Low -- °F
Precip. -- in
7:30 AM 5:22 PM
Waxing Crescent, 51% visible
Pressure 30.16 in
Visibility 10.0 miles
Clouds Clear
Windchill 30 °F
Dew Point 3 °F
Humidity 23%
Rainfall 0.00 in
Snow Depth Not available.
UV 4 out of 12
Pollen 1.30 out of 12
Air Quality Not available.
Flu Activity Not available.
METAR KPAN 282015Z AUTO VRB04G10KT 10SM CLR 05/M12 A3016 RMK AO2

More Conditions Fewer Conditions

Pressure 30.16 in
Visibility 10.0 miles
Clouds Clear
Windchill 30 °F
Dew Point 3 °F
Humidity 23%
Rainfall 0.00 in
Snow Depth Not available.
UV 4 out of 12
Pollen 1.30 out of 12
Air Quality Not available.
Flu Activity Not available.
METAR KPAN 282015Z AUTO VRB04G10KT 10SM CLR 05/M12 A3016 RMK AO2

More Conditions Fewer Conditions

10-Day Weather Forecast

Almanac

Astronomy

Dec. 28, 2014 Rise Set
Actual Time
Civil Twilight
Nautical Twilight
Astronomical Twilight
Moon
Length of Visible Light
Length of Day
Tomorrow will be .
, % of the Moon is Illuminated

Today's Extremes

State Highs State Lows

Community

WunderPhotos

Upload Photos

1,781,411 photos uploaded!

WunderBlogs® & News

Nearby

Air Quality

  Air Quality AQ Index Pollutant
Not available.

Snow Depth

Station Depth Elevation

Earthquake Activity

City Distance Mag. Time & Date
Minimum magnitude displayed is 2.5.

Coastal Water Temperatures

Place Temperature

Nearby Weather Stations